< < Back
Terminal Aerodrome Forecast


Current Version              Previous Versions:   1  2  3  4  5  6  7  8  9  

Terminal Aerodrome Forecast

460
FTUS42 KGSP 300538
TAFAND
TAF
KAND 300538Z 3006/3106 06003KT P6SM FEW140
     FM301600 06007KT P6SM FEW140
     FM310300 07003KT P6SM FEW250=

Latest METAR

057
SAUS70 KWBC 300900 RRD
MTRAND
METAR KAND 300856Z AUTO 05004KT 10SM CLR 22/18 A3010 RMK AO2 SLP181
T02170178 58003


USA.gov is the U.S. government's official web portal to all federal, state and local government web resources and services.